Time;durP1;ratioP1;P1;durP2;ratioP2;P2;SDS_P1;SDS_P2;PMS_P1;PMS_P2;Temp;Humidity;BMP_temperature;BMP_pressure;BME280_temperature;BME280_humidity;BME280_pressure;Samples;Min_cycle;Max_cycle;Signal;HPM_P1;HPM_P2
2021/06/30 00:02:53;;;;;;;6.60;6.00;;;;;;;23.44;63.64;99408.33;1855827;75;22758;-77
2021/06/30 00:05:19;;;;;;;6.70;6.10;;;;;;;23.36;63.69;99414.23;1829135;77;21017;-75
2021/06/30 00:07:46;;;;;;;7.97;6.37;;;;;;;23.34;63.67;99418.56;1842366;77;21111;-77
2021/06/30 00:10:13;;;;;;;6.92;5.65;;;;;;;23.32;63.87;99414.48;1828610;77;21078;-77
2021/06/30 00:12:40;;;;;;;6.35;5.42;;;;;;;23.30;64.01;99418.80;1833568;77;21087;-78
2021/06/30 00:15:14;;;;;;;7.62;5.95;;;;;;;23.27;64.01;99416.60;1827041;77;20974;-78
2021/06/30 00:17:40;;;;;;;7.50;6.05;;;;;;;23.25;64.03;99416.59;1837194;77;21005;-78
2021/06/30 00:20:09;;;;;;;6.33;5.83;;;;;;;23.22;64.07;99418.45;1854486;77;21051;-79
2021/06/30 00:22:37;;;;;;;6.95;6.30;;;;;;;23.18;64.18;99416.83;1835728;77;21465;-77
2021/06/30 00:25:04;;;;;;;6.58;5.97;;;;;;;23.14;64.25;99416.52;1833568;77;21022;-75
2021/06/30 00:27:31;;;;;;;7.45;6.75;;;;;;;23.12;64.40;99416.48;1839024;77;21060;-77
2021/06/30 00:30:00;;;;;;;7.50;6.65;;;;;;;23.10;64.49;99419.98;1849454;77;21037;-79
2021/06/30 00:32:27;;;;;;;7.15;6.10;;;;;;;23.08;64.54;99418.08;1846319;77;22139;-78
2021/06/30 00:34:54;;;;;;;6.60;5.65;;;;;;;23.07;64.56;99420.52;1837119;77;21466;-78
2021/06/30 00:37:22;;;;;;;9.10;6.47;;;;;;;23.04;64.53;99409.64;1835360;77;21036;-79
2021/06/30 00:39:48;;;;;;;6.80;5.78;;;;;;;23.02;64.50;99417.73;1839794;77;21485;-81
2021/06/30 00:42:15;;;;;;;6.72;6.15;;;;;;;23.01;64.50;99412.05;1827026;77;21052;-79
2021/06/30 00:44:43;;;;;;;6.08;5.58;;;;;;;22.99;64.50;99408.78;1831725;77;21746;-79
2021/06/30 00:47:09;;;;;;;7.62;6.35;;;;;;;22.96;64.54;99406.84;1836579;77;21025;-80
2021/06/30 00:49:37;;;;;;;5.67;5.17;;;;;;;22.95;64.54;99406.58;1832365;77;21086;-77
2021/06/30 00:52:05;;;;;;;6.97;5.72;;;;;;;22.95;64.54;99405.77;1827017;77;21025;-80
2021/06/30 00:54:32;;;;;;;8.05;5.50;;;;;;;22.92;64.40;99405.72;1835366;77;21074;-78
2021/06/30 00:56:59;;;;;;;7.45;5.92;;;;;;;22.91;64.31;99400.05;1840531;77;21817;-78
2021/06/30 00:59:26;;;;;;;7.53;5.45;;;;;;;22.90;64.30;99403.00;1845296;77;21543;-79
2021/06/30 01:01:53;;;;;;;6.55;5.95;;;;;;;22.88;64.27;99400.55;1828568;77;21336;-78
2021/06/30 01:04:20;;;;;;;6.83;5.60;;;;;;;22.87;64.39;99404.34;1822477;77;21520;-80
2021/06/30 01:06:49;;;;;;;6.87;5.55;;;;;;;22.85;64.39;99403.79;1827238;77;21101;-80
2021/06/30 01:09:15;;;;;;;6.50;5.90;;;;;;;22.84;64.50;99399.43;1830487;77;21550;-80
2021/06/30 01:11:42;;;;;;;7.03;6.25;;;;;;;22.83;64.62;99408.64;1840946;77;21096;-79
2021/06/30 01:14:10;;;;;;;6.83;5.72;;;;;;;22.82;64.56;99404.83;1826042;77;21031;-79
2021/06/30 01:16:36;;;;;;;7.62;6.00;;;;;;;22.80;64.57;99405.63;1835120;77;21006;-79
2021/06/30 01:19:02;;;;;;;7.15;6.50;;;;;;;22.80;64.64;99406.98;1827332;77;20985;-80
2021/06/30 01:21:29;;;;;;;7.45;6.10;;;;;;;22.78;64.67;99412.11;1819678;77;21504;-79
2021/06/30 01:23:55;;;;;;;6.97;6.37;;;;;;;22.78;64.78;99412.65;1814820;77;21036;-78
2021/06/30 01:26:22;;;;;;;7.53;5.83;;;;;;;22.76;64.78;99412.09;1827763;77;20996;-77
2021/06/30 01:28:48;;;;;;;6.70;5.95;;;;;;;22.75;64.79;99402.31;1816892;77;21027;-77
2021/06/30 01:31:15;;;;;;;6.55;5.92;;;;;;;22.73;64.88;99400.41;1819146;77;21472;-78
2021/06/30 01:33:42;;;;;;;5.70;5.20;;;;;;;22.72;64.83;99410.42;1820273;77;21138;-78
2021/06/30 01:36:08;;;;;;;6.85;5.55;;;;;;;22.70;64.89;99403.64;1819849;77;21058;-79
2021/06/30 01:38:35;;;;;;;8.00;5.70;;;;;;;22.67;64.98;99404.95;1822303;77;21485;-78
2021/06/30 01:41:01;;;;;;;6.65;5.95;;;;;;;22.66;65.12;99407.39;1836491;77;21200;-77
2021/06/30 01:43:27;;;;;;;5.90;5.30;;;;;;;22.65;65.23;99407.64;1825077;77;21037;-76
2021/06/30 01:45:55;;;;;;;8.00;6.00;;;;;;;22.63;65.24;99405.19;1828839;77;21124;-75
2021/06/30 01:48:21;;;;;;;6.33;5.72;;;;;;;22.62;65.31;99412.20;1820173;77;21042;-80
2021/06/30 01:50:50;;;;;;;6.75;6.15;;;;;;;22.61;65.37;99416.81;1816457;77;21006;-77
2021/06/30 01:53:18;;;;;;;8.08;5.90;;;;;;;22.58;65.43;99415.44;1836938;77;21120;-79
2021/06/30 01:55:44;;;;;;;7.90;5.83;;;;;;;22.57;65.45;99416.50;1817203;77;21085;-79
2021/06/30 01:58:10;;;;;;;6.45;5.85;;;;;;;22.57;65.48;99412.98;1824705;77;21470;-77
2021/06/30 02:00:37;;;;;;;7.45;6.37;;;;;;;22.55;65.58;99419.19;1817671;77;20986;-77
2021/06/30 02:03:04;;;;;;;7.00;6.05;;;;;;;22.54;65.56;99414.83;1818504;77;20983;-80
2021/06/30 02:05:31;;;;;;;8.03;6.00;;;;;;;22.54;65.63;99417.03;1771839;80;21081;-80
2021/06/30 02:08:01;;;;;;;6.97;5.92;;;;;;;22.52;65.74;99420.52;1764501;80;21539;-79
2021/06/30 02:10:28;;;;;;;6.97;6.08;;;;;;;22.52;65.82;99422.39;1821714;77;21096;-79
2021/06/30 02:12:56;;;;;;;7.83;6.53;;;;;;;22.50;65.75;99430.79;1826496;77;21400;-79
2021/06/30 02:15:28;;;;;;;6.37;5.78;;;;;;;22.49;65.70;99431.84;1816215;77;21014;-75
2021/06/30 02:17:57;;;;;;;7.22;6.10;;;;;;;22.48;65.68;99432.91;1831954;77;21014;-75
2021/06/30 02:20:25;;;;;;;9.08;6.30;;;;;;;22.48;65.65;99436.16;1823983;77;21096;-76
2021/06/30 02:22:52;;;;;;;7.15;6.53;;;;;;;22.46;65.66;99436.41;1822294;77;21783;-76
2021/06/30 02:25:23;;;;;;;7.20;5.85;;;;;;;22.45;65.58;99440.20;1819182;77;21010;-77
2021/06/30 02:27:49;;;;;;;7.37;6.17;;;;;;;22.45;65.60;99444.26;1818447;77;21092;-78
2021/06/30 02:30:20;;;;;;;8.28;6.85;;;;;;;22.44;65.60;99443.95;1828626;77;21517;-77
2021/06/30 02:32:46;;;;;;;8.13;6.28;;;;;;;22.43;65.56;99439.63;1833100;77;21501;-75
2021/06/30 02:35:19;;;;;;;8.33;6.65;;;;;;;22.44;65.58;99445.31;1839816;77;21074;-76
2021/06/30 02:37:47;;;;;;;7.08;6.33;;;;;;;22.44;65.70;99445.86;1823377;77;21010;-76
2021/06/30 02:40:15;;;;;;;7.67;6.22;;;;;;;22.43;65.77;99445.05;1820672;77;21033;-76
2021/06/30 02:42:41;;;;;;;6.50;5.87;;;;;;;22.42;65.76;99448.81;1827373;77;21105;-76
2021/06/30 02:45:10;;;;;;;8.40;6.45;;;;;;;22.41;65.80;99444.48;1822007;77;21108;-78
2021/06/30 02:47:37;;;;;;;12.47;10.78;;;;;;;22.40;65.77;99446.89;1836716;77;21931;-78
2021/06/30 02:50:07;;;;;;;10.23;9.23;;;;;;;22.40;65.83;99444.19;1820683;77;22194;-79
2021/06/30 02:52:35;;;;;;;9.30;8.35;;;;;;;22.41;65.77;99447.19;1835465;77;21007;-75
2021/06/30 02:55:06;;;;;;;9.28;7.50;;;;;;;22.41;65.74;99447.19;1819014;77;21048;-76
2021/06/30 02:57:33;;;;;;;7.72;6.80;;;;;;;22.41;65.70;99451.25;1822229;77;21003;-76
2021/06/30 03:00:07;;;;;;;8.93;6.83;;;;;;;22.39;65.74;99443.92;1826731;77;21058;-75
2021/06/30 03:02:34;;;;;;;6.60;5.90;;;;;;;22.40;65.83;99441.48;1829905;77;20998;-76
2021/06/30 03:05:00;;;;;;;6.87;6.15;;;;;;;22.41;65.85;99434.17;1828669;77;21018;-75
2021/06/30 03:07:27;;;;;;;7.03;6.40;;;;;;;22.39;65.81;99433.09;1840988;77;21005;-75
2021/06/30 03:09:53;;;;;;;6.95;5.92;;;;;;;22.41;65.90;99438.23;1827544;77;21428;-76
2021/06/30 03:12:19;;;;;;;7.17;6.58;;;;;;;22.41;65.86;99436.37;1833356;77;21152;-74
2021/06/30 03:14:47;;;;;;;6.85;6.22;;;;;;;22.43;65.85;99435.58;1830309;77;21073;-75
2021/06/30 03:17:14;;;;;;;6.92;6.33;;;;;;;22.44;65.80;99433.67;1833848;77;21033;-74
2021/06/30 03:19:41;;;;;;;7.17;6.37;;;;;;;22.46;65.79;99434.23;1829430;77;21050;-76
2021/06/30 03:22:07;;;;;;;6.95;6.30;;;;;;;22.46;65.68;99434.23;1838306;77;21767;-74
2021/06/30 03:24:33;;;;;;;6.80;6.20;;;;;;;22.48;65.62;99438.31;1820912;77;21118;-74
2021/06/30 03:27:00;;;;;;;8.43;5.80;;;;;;;22.49;65.72;99431.84;1822088;77;21093;-75
2021/06/30 03:29:27;;;;;;;6.30;5.72;;;;;;;22.50;65.77;99434.01;1819923;77;21479;-75
2021/06/30 03:31:54;;;;;;;8.08;6.55;;;;;;;22.51;65.77;99439.17;1835027;77;21550;-75
2021/06/30 03:34:21;;;;;;;6.90;6.15;;;;;;;22.52;65.93;99444.05;1823411;77;21005;-75
2021/06/30 03:36:48;;;;;;;7.28;6.20;;;;;;;22.54;65.95;99445.96;1830787;77;21533;-74
2021/06/30 03:39:14;;;;;;;6.17;5.60;;;;;;;22.53;65.93;99441.09;1827017;77;21007;-75
2021/06/30 03:41:41;;;;;;;6.47;5.72;;;;;;;22.53;65.91;99438.38;1838138;77;21057;-76
2021/06/30 03:44:07;;;;;;;7.75;5.28;;;;;;;22.55;65.62;99444.91;1840074;77;21050;-77
2021/06/30 03:46:33;;;;;;;6.35;5.75;;;;;;;22.57;65.39;99448.17;1829411;77;21040;-78
2021/06/30 03:49:00;;;;;;;12.30;7.92;;;;;;;22.60;65.05;99446.84;1840988;77;21261;-75
2021/06/30 03:51:26;;;;;;;11.83;10.30;;;;;;;22.62;64.71;99447.40;1828135;77;21021;-76
2021/06/30 03:53:55;;;;;;;19.45;16.17;;;;;;;22.64;64.65;99447.45;1837279;77;21041;-75
2021/06/30 03:56:25;;;;;;;17.32;12.65;;;;;;;22.66;64.75;99441.23;1839659;77;21040;-77
2021/06/30 03:58:55;;;;;;;11.03;9.88;;;;;;;22.68;64.73;99440.44;1836628;77;21713;-77
2021/06/30 04:01:24;;;;;;;7.33;6.62;;;;;;;22.71;64.58;99443.98;1821025;77;21133;-78
2021/06/30 04:03:55;;;;;;;7.70;6.85;;;;;;;22.75;64.35;99451.89;1819244;77;21079;-76
2021/06/30 04:06:24;;;;;;;7.53;6.03;;;;;;;22.79;63.93;99446.77;1839189;77;21119;-75
2021/06/30 04:08:51;;;;;;;6.12;5.53;;;;;;;22.81;63.72;99454.09;1829020;77;21009;-77
2021/06/30 04:11:17;;;;;;;6.40;4.75;;;;;;;22.84;63.63;99456.30;1832712;77;21600;-79
2021/06/30 04:13:45;;;;;;;7.78;5.20;;;;;;;22.89;63.47;99463.13;1839601;77;21143;-78
2021/06/30 04:16:11;;;;;;;6.65;4.90;;;;;;;22.92;63.47;99462.60;1822026;77;21042;-79
2021/06/30 04:18:38;;;;;;;4.87;4.47;;;;;;;22.95;63.49;99472.12;1823161;77;21055;-79
2021/06/30 04:21:05;;;;;;;6.60;4.60;;;;;;;22.99;63.50;99479.20;1825182;77;20997;-79
2021/06/30 04:23:34;;;;;;;5.70;4.65;;;;;;;23.03;63.37;99474.94;1822484;77;21104;-79
2021/06/30 04:26:00;;;;;;;5.10;4.60;;;;;;;23.07;63.15;99474.16;1827067;77;21135;-80
2021/06/30 04:28:26;;;;;;;5.08;3.85;;;;;;;23.14;62.80;99476.64;1841123;77;21002;-80
2021/06/30 04:30:52;;;;;;;4.95;4.55;;;;;;;23.20;62.75;99473.44;1836867;77;21552;-79
2021/06/30 04:33:19;;;;;;;5.37;4.58;;;;;;;23.26;62.63;99475.95;1821153;77;21014;-77
2021/06/30 04:35:45;;;;;;;5.50;4.60;;;;;;;23.32;62.43;99474.11;1843342;77;21009;-77
2021/06/30 04:38:12;;;;;;;5.10;4.60;;;;;;;23.36;62.23;99472.51;1780310;80;21143;-75
2021/06/30 04:40:38;;;;;;;8.40;7.33;;;;;;;23.44;61.84;99475.28;1842728;77;21507;-76
2021/06/30 04:43:05;;;;;;;10.10;8.68;;;;;;;23.51;61.66;99469.11;1817998;77;21003;-75
2021/06/30 04:45:31;;;;;;;7.67;6.97;;;;;;;23.59;61.45;99467.27;1841707;77;21001;-75
2021/06/30 04:47:59;;;;;;;5.35;4.85;;;;;;;23.67;61.22;99460.53;1825509;77;22231;-65
2021/06/30 04:50:26;;;;;;;6.33;5.70;;;;;;;23.72;62.35;99458.67;1843393;77;21135;-67
2021/06/30 04:52:52;;;;;;;7.12;5.03;;;;;;;23.78;63.65;99451.42;1828861;77;21057;-66
2021/06/30 04:55:18;;;;;;;6.17;5.58;;;;;;;23.87;64.17;99455.25;1828269;77;21030;-65
2021/06/30 04:57:48;;;;;;;7.95;6.10;;;;;;;23.98;64.38;99453.42;1847558;77;21002;-66
2021/06/30 05:00:19;;;;;;;8.70;7.55;;;;;;;24.09;63.98;99452.39;1834680;77;21003;-65
2021/06/30 05:02:49;;;;;;;10.72;6.22;;;;;;;24.21;63.91;99450.81;1832751;77;21128;-67
2021/06/30 05:05:17;;;;;;;7.08;5.83;;;;;;;24.31;63.81;99454.91;1813225;77;21069;-67
2021/06/30 05:07:44;;;;;;;8.88;5.45;;;;;;;24.43;63.55;99456.59;1824132;77;21110;-67
2021/06/30 05:10:10;;;;;;;8.95;5.78;;;;;;;24.52;63.38;99458.55;1819954;77;21523;-66
2021/06/30 05:12:38;;;;;;;7.75;5.47;;;;;;;24.63;63.01;99451.81;1840385;77;21069;-65
2021/06/30 05:15:06;;;;;;;6.85;5.40;;;;;;;24.71;62.80;99449.36;1832213;77;22341;-67
2021/06/30 05:17:34;;;;;;;9.00;5.25;;;;;;;24.79;62.41;99449.38;1852351;77;21094;-68
2021/06/30 05:20:01;;;;;;;5.87;5.15;;;;;;;24.87;62.14;99446.13;1831127;77;21446;-66
2021/06/30 05:22:27;;;;;;;6.42;5.67;;;;;;;24.93;61.79;99445.04;1827430;77;21126;-67
2021/06/30 05:24:54;;;;;;;9.48;5.50;;;;;;;25.02;61.91;99447.24;1829302;77;21495;-66
2021/06/30 05:27:21;;;;;;;6.28;5.40;;;;;;;25.10;61.60;99448.05;1824904;77;21133;-66
2021/06/30 05:29:48;;;;;;;6.67;5.28;;;;;;;25.18;61.56;99454.30;1840897;77;21037;-66
2021/06/30 05:32:14;;;;;;;7.35;5.92;;;;;;;25.26;61.49;99452.42;1831538;77;21042;-66
2021/06/30 05:34:42;;;;;;;9.98;5.65;;;;;;;25.34;61.53;99457.05;1819014;77;21073;-66
2021/06/30 05:37:08;;;;;;;9.25;5.62;;;;;;;25.43;61.49;99452.70;1841972;77;20986;-66
2021/06/30 05:39:35;;;;;;;7.42;5.53;;;;;;;25.50;61.47;99457.33;1827892;77;21364;-66
2021/06/30 05:42:02;;;;;;;8.05;4.83;;;;;;;25.57;61.25;99449.68;1826978;77;21154;-67
2021/06/30 05:44:28;;;;;;;6.55;4.80;;;;;;;25.64;60.81;99450.77;1816380;77;20994;-66
2021/06/30 05:46:55;;;;;;;6.47;4.80;;;;;;;25.72;60.12;99453.48;1844014;77;21029;-66
2021/06/30 05:49:22;;;;;;;5.75;5.03;;;;;;;25.79;60.21;99447.22;1833835;77;21061;-67
2021/06/30 05:51:50;;;;;;;6.03;4.55;;;;;;;25.85;59.91;99450.19;1823631;77;21108;-65
2021/06/30 05:54:16;;;;;;;5.85;4.75;;;;;;;25.91;59.50;99458.63;1841779;77;21031;-65
2021/06/30 05:56:43;;;;;;;7.62;5.35;;;;;;;25.96;57.77;99455.91;1820141;77;20983;-66
2021/06/30 05:59:10;;;;;;;6.58;4.72;;;;;;;26.02;57.90;99456.15;1833041;77;21052;-70
2021/06/30 06:01:37;;;;;;;5.30;4.67;;;;;;;26.07;58.20;99452.59;1822464;77;21019;-66
2021/06/30 06:04:03;;;;;;;4.80;4.30;;;;;;;26.13;57.97;99459.63;1827708;77;23256;-69
2021/06/30 06:06:31;;;;;;;7.22;4.30;;;;;;;26.18;57.71;99456.09;1814231;77;21014;-67
2021/06/30 06:08:57;;;;;;;9.93;4.60;;;;;;;26.22;57.30;99456.61;1816755;77;21036;-66
2021/06/30 06:11:24;;;;;;;6.78;4.17;;;;;;;26.27;56.69;99454.44;1815708;77;21021;-67
2021/06/30 06:13:51;;;;;;;4.42;3.83;;;;;;;26.32;56.48;99460.39;1776063;80;20998;-66
2021/06/30 06:16:22;;;;;;;6.78;4.35;;;;;;;26.38;56.04;99463.35;1786692;79;21184;-66
2021/06/30 06:18:49;;;;;;;8.73;4.85;;;;;;;26.43;55.60;99463.34;1738593;80;21032;-66
2021/06/30 06:21:16;;;;;;;4.33;3.92;;;;;;;26.47;55.54;99458.95;1763463;80;21035;-66
2021/06/30 06:23:42;;;;;;;5.62;3.62;;;;;;;26.52;55.29;99466.27;1768830;79;21055;-67
2021/06/30 06:26:09;;;;;;;4.12;3.70;;;;;;;26.56;55.23;99453.72;1762506;79;21005;-63
2021/06/30 06:28:36;;;;;;;6.50;3.67;;;;;;;26.60;54.78;99457.57;1766693;80;21154;-66
2021/06/30 06:31:04;;;;;;;4.90;4.03;;;;;;;26.64;54.50;99458.63;1778131;80;21033;-66
2021/06/30 06:33:30;;;;;;;4.10;3.70;;;;;;;26.69;53.96;99451.77;1773143;80;21080;-66
2021/06/30 06:35:57;;;;;;;3.77;3.47;;;;;;;26.72;53.81;99443.05;1818797;77;21046;-66
2021/06/30 06:38:24;;;;;;;4.78;3.47;;;;;;;26.77;53.61;99447.64;1832720;77;21045;-66
2021/06/30 06:40:52;;;;;;;4.05;3.62;;;;;;;26.80;53.15;99443.80;1826473;77;21712;-67
2021/06/30 06:43:18;;;;;;;4.30;3.00;;;;;;;26.86;52.96;99450.03;1821903;77;21078;-66
2021/06/30 06:45:45;;;;;;;4.10;3.67;;;;;;;26.88;52.75;99451.92;1833348;77;21076;-65
2021/06/30 06:48:11;;;;;;;4.08;3.33;;;;;;;26.91;52.16;99456.82;1831954;77;21754;-66
2021/06/30 06:50:38;;;;;;;2.95;2.67;;;;;;;26.95;52.16;99444.80;1831972;77;21489;-66
2021/06/30 06:53:04;;;;;;;3.50;3.20;;;;;;;26.98;51.51;99451.84;1830277;77;21021;-66
2021/06/30 06:55:33;;;;;;;4.75;3.98;;;;;;;27.02;50.99;99454.81;1825739;77;21002;-67
2021/06/30 06:57:59;;;;;;;3.50;3.02;;;;;;;27.05;51.20;99447.45;1847249;77;21022;-67
2021/06/30 07:00:26;;;;;;;4.40;3.15;;;;;;;27.09;51.25;99446.33;1828423;77;21087;-66
2021/06/30 07:02:53;;;;;;;6.00;3.72;;;;;;;27.11;51.59;99451.75;1809496;77;21013;-65
2021/06/30 07:05:19;;;;;;;4.67;3.37;;;;;;;27.14;51.82;99447.64;1799654;78;21063;-67
2021/06/30 07:07:47;;;;;;;7.85;3.17;;;;;;;27.18;51.51;99448.72;1801246;77;21058;-65
2021/06/30 07:10:13;;;;;;;4.00;3.45;;;;;;;27.20;51.60;99450.05;1793533;77;21497;-67
2021/06/30 07:12:40;;;;;;;5.90;3.47;;;;;;;27.24;51.89;99445.68;1818861;78;21762;-67
2021/06/30 07:15:10;;;;;;;3.33;3.02;;;;;;;27.27;51.29;99445.65;1815355;77;21068;-66
2021/06/30 07:17:37;;;;;;;5.50;3.40;;;;;;;27.30;51.36;99455.20;1817171;77;21585;-66
2021/06/30 07:20:06;;;;;;;4.50;3.77;;;;;;;27.32;51.33;99452.44;1805921;77;21042;-65
2021/06/30 07:22:33;;;;;;;3.95;3.50;;;;;;;27.36;51.33;99453.48;1791468;77;21063;-65
2021/06/30 07:24:59;;;;;;;5.87;3.50;;;;;;;27.39;50.39;99445.27;1809027;77;21014;-65
2021/06/30 07:27:26;;;;;;;6.78;3.50;;;;;;;27.41;50.59;99443.06;1795497;77;21010;-66
2021/06/30 07:29:52;;;;;;;6.00;3.50;;;;;;;27.44;50.83;99444.67;1801734;78;21135;-67
2021/06/30 07:32:19;;;;;;;4.47;3.72;;;;;;;27.47;50.52;99446.03;1798982;77;21065;-68
2021/06/30 07:34:45;;;;;;;6.45;3.35;;;;;;;27.49;50.40;99450.66;1812090;78;21084;-67
2021/06/30 07:37:11;;;;;;;5.60;3.50;;;;;;;27.53;50.47;99446.80;1818100;77;21030;-65
2021/06/30 07:39:38;;;;;;;5.50;3.65;;;;;;;27.55;49.98;99435.86;1803533;78;21017;-64
2021/06/30 07:42:04;;;;;;;5.12;4.00;;;;;;;27.57;49.27;99437.74;1800498;77;21570;-61
2021/06/30 07:44:30;;;;;;;5.28;3.75;;;;;;;27.60;49.78;99439.07;1803865;77;21113;-63
2021/06/30 07:46:57;;;;;;;6.50;3.33;;;;;;;27.62;49.90;99433.61;1815405;77;21025;-61
2021/06/30 07:49:23;;;;;;;5.25;4.00;;;;;;;27.67;50.12;99437.38;1797775;78;21072;-63
2021/06/30 07:51:50;;;;;;;6.22;4.10;;;;;;;27.70;50.19;99432.70;1800668;78;21107;-64
2021/06/30 07:54:18;;;;;;;6.72;3.50;;;;;;;27.71;50.31;99428.87;1810971;77;22097;-67
2021/06/30 07:56:44;;;;;;;5.97;3.77;;;;;;;27.75;49.58;99428.55;1799738;77;21602;-64
2021/06/30 07:59:11;;;;;;;6.37;3.75;;;;;;;27.76;48.73;99431.56;1808316;77;21556;-64
2021/06/30 08:01:40;;;;;;;5.90;3.55;;;;;;;27.78;48.93;99430.72;1803336;78;21013;-64
2021/06/30 08:04:07;;;;;;;6.35;3.52;;;;;;;27.81;48.55;99432.29;1817373;77;21045;-64
2021/06/30 08:06:36;;;;;;;5.80;3.47;;;;;;;27.84;48.77;99430.91;1796864;79;21186;-64
2021/06/30 08:09:04;;;;;;;4.95;3.67;;;;;;;27.86;47.79;99430.08;1782338;80;21021;-64
2021/06/30 08:11:30;;;;;;;3.67;2.58;;;;;;;27.88;47.90;99432.52;1781606;80;21127;-66
2021/06/30 08:13:58;;;;;;;5.58;3.22;;;;;;;27.90;46.90;99434.44;1769934;80;21072;-62
2021/06/30 08:16:25;;;;;;;3.10;2.58;;;;;;;27.91;45.66;99426.48;1763469;80;21026;-67
2021/06/30 08:18:52;;;;;;;5.08;3.15;;;;;;;27.92;44.30;99431.66;1784589;78;21118;-65
2021/06/30 08:21:20;;;;;;;5.67;3.67;;;;;;;27.93;44.30;99436.03;1758067;80;21021;-67
2021/06/30 08:23:47;;;;;;;4.87;2.65;;;;;;;27.94;44.22;99433.55;1787993;79;21029;-69
2021/06/30 08:26:13;;;;;;;4.60;2.90;;;;;;;27.97;44.37;99436.24;1801187;79;21786;-69
2021/06/30 08:28:40;;;;;;;3.35;2.87;;;;;;;27.96;44.20;99436.80;1771549;79;21136;-74
2021/06/30 08:31:06;;;;;;;4.17;3.05;;;;;;;27.95;44.22;99434.36;1770460;80;21454;-76
2021/06/30 08:33:34;;;;;;;5.05;2.92;;;;;;;27.95;44.84;99429.73;1766327;80;21486;-76
2021/06/30 08:36:00;;;;;;;3.85;2.83;;;;;;;27.97;45.67;99434.88;1779960;80;21451;-74
2021/06/30 08:38:26;;;;;;;8.85;3.90;;;;;;;28.00;46.28;99424.75;1771106;80;21355;-75
2021/06/30 08:40:59;;;;;;;4.22;3.37;;;;;;;28.02;46.65;99437.00;1759009;80;21057;-76
2021/06/30 08:43:25;;;;;;;3.58;2.50;;;;;;;28.02;46.70;99441.09;1783638;79;21150;-81
2021/06/30 08:45:52;;;;;;;3.98;2.95;;;;;;;28.03;44.16;99445.46;1775296;79;21026;-74
2021/06/30 08:48:19;;;;;;;5.00;2.55;;;;;;;28.02;42.90;99439.73;1773471;79;21021;-74
2021/06/30 08:50:47;;;;;;;3.30;2.60;;;;;;;28.02;42.19;99442.45;1771098;79;21347;-77
2021/06/30 08:53:14;;;;;;;3.62;2.55;;;;;;;28.04;42.95;99436.71;1772302;79;21611;-75
2021/06/30 08:55:45;;;;;;;4.15;2.35;;;;;;;28.06;42.76;99437.23;1780963;79;21158;-76
2021/06/30 08:58:12;;;;;;;2.65;2.45;;;;;;;28.07;41.15;99433.94;1783649;79;21610;-78
2021/06/30 09:00:41;;;;;;;2.08;1.92;;;;;;;28.08;41.29;99430.12;1784702;79;21087;-66
2021/06/30 09:03:15;;;;;;;5.05;2.70;;;;;;;28.10;42.30;99429.27;1758582;79;21049;-71
2021/06/30 09:08:51;;;;;;;2.60;2.40;;;;;;;28.28;43.77;99429.87;1773947;80;21109;-73
2021/06/30 09:11:28;;;;;;;4.47;2.40;;;;;;;28.35;43.26;99428.94;1772886;80;21073;-74
2021/06/30 09:14:16;;;;;;;2.60;2.40;;;;;;;28.38;43.45;99426.99;1769245;80;21969;-73
2021/06/30 09:17:03;;;;;;;2.45;2.25;;;;;;;28.43;43.84;99428.83;1770099;80;21022;-70
2021/06/30 09:19:53;;;;;;;3.10;2.70;;;;;;;28.46;44.16;99426.09;1768845;80;21022;-72
2021/06/30 09:22:29;;;;;;;3.37;2.42;;;;;;;28.47;42.80;99419.50;1767148;80;21169;-72
2021/06/30 09:24:57;;;;;;;2.70;2.50;;;;;;;28.49;42.21;99420.02;1767898;80;21549;-68
2021/06/30 09:27:43;;;;;;;4.08;2.98;;;;;;;28.49;41.18;99416.75;1754206;80;20979;-67
2021/06/30 09:30:12;;;;;;;2.55;2.33;;;;;;;28.52;41.96;99415.38;1753827;80;21040;-69
2021/06/30 09:32:58;;;;;;;2.95;2.42;;;;;;;28.54;43.86;99422.16;1759867;80;21093;-69
2021/06/30 09:35:32;;;;;;;4.42;2.62;;;;;;;28.54;43.42;99418.05;1754855;80;21182;-71
2021/06/30 09:38:00;;;;;;;3.83;2.87;;;;;;;28.56;43.36;99424.59;1757685;80;21607;-69
2021/06/30 09:40:44;;;;;;;6.17;4.80;;;;;;;28.59;42.75;99413.09;1767338;80;21026;-68
2021/06/30 09:43:33;;;;;;;9.48;6.15;;;;;;;28.64;43.08;99415.73;1762955;80;21077;-70
2021/06/30 09:46:05;;;;;;;8.78;5.03;;;;;;;28.69;42.35;99406.09;1805566;78;21006;-70
2021/06/30 09:48:38;;;;;;;5.83;4.92;;;;;;;28.73;43.04;99404.39;1814437;78;21256;-70
2021/06/30 09:51:05;;;;;;;7.05;5.30;;;;;;;28.76;43.26;99399.70;1808737;78;20994;-72
2021/06/30 09:53:37;;;;;;;7.40;5.33;;;;;;;28.80;43.29;99399.90;1799487;78;21096;-71
2021/06/30 09:56:12;;;;;;;6.03;4.28;;;;;;;28.83;43.38;99389.75;1812957;78;21042;-75
2021/06/30 09:58:40;;;;;;;4.60;4.17;;;;;;;28.88;43.54;99397.05;1809048;78;20975;-75
2021/06/30 10:01:20;;;;;;;4.40;3.50;;;;;;;28.87;42.42;99388.04;1785270;78;21028;-75
2021/06/30 10:03:47;;;;;;;6.67;4.25;;;;;;;28.82;41.68;99389.51;1794362;78;21045;-80
2021/06/30 10:06:31;;;;;;;11.70;3.85;;;;;;;28.74;41.69;99385.53;1829694;77;21007;-76
2021/06/30 17:25:57;;;;;;;9.45;8.40;;;;;;;25.73;52.70;99216.54;1816884;78;22705;-72
2021/06/30 17:28:24;;;;;;;10.18;7.60;;;;;;;25.82;52.27;99224.91;1764464;80;21055;-74
2021/06/30 17:30:53;;;;;;;9.75;8.53;;;;;;;26.08;51.89;99220.16;1770203;79;20997;-72
2021/06/30 17:33:21;;;;;;;8.78;7.78;;;;;;;26.36;51.24;99224.56;1783258;80;21112;-73
2021/06/30 17:35:50;;;;;;;9.80;7.62;;;;;;;26.61;50.56;99220.27;1764042;80;20950;-71
2021/06/30 17:38:17;;;;;;;10.15;8.35;;;;;;;26.87;49.99;99218.11;1731721;81;21097;-71
2021/06/30 17:40:44;;;;;;;9.63;7.95;;;;;;;27.11;49.45;99224.13;1750231;81;21930;-73
2021/06/30 17:43:10;;;;;;;11.60;8.80;;;;;;;27.31;48.91;99222.28;1739781;81;21141;-72
2021/06/30 17:45:37;;;;;;;10.58;8.05;;;;;;;27.50;48.48;99226.41;1730143;81;21399;-73
2021/06/30 17:48:05;;;;;;;10.70;8.60;;;;;;;27.68;48.05;99232.45;1755924;80;21053;-73
2021/06/30 17:50:33;;;;;;;8.45;7.35;;;;;;;27.84;47.69;99228.95;1752746;81;21096;-70
2021/06/30 17:53:00;;;;;;;9.10;8.00;;;;;;;27.98;47.37;99239.97;1751470;81;21084;-71
2021/06/30 17:55:27;;;;;;;8.80;7.20;;;;;;;28.13;47.04;99245.76;1756203;81;21128;-71
2021/06/30 17:57:54;;;;;;;9.83;8.03;;;;;;;28.25;46.79;99255.66;1756541;81;21757;-73
2021/06/30 18:00:21;;;;;;;8.23;7.42;;;;;;;28.36;46.58;99254.39;1722984;81;21090;-73
2021/06/30 18:02:48;;;;;;;10.10;7.53;;;;;;;28.50;46.34;99255.00;1737961;81;21600;-72
2021/06/30 18:05:18;;;;;;;8.60;7.67;;;;;;;28.58;46.08;99258.44;1745639;80;21038;-73
2021/06/30 18:07:44;;;;;;;7.33;6.47;;;;;;;28.68;45.96;99258.25;1697302;84;21760;-71
2021/06/30 18:10:12;;;;;;;7.65;6.92;;;;;;;28.76;45.73;99261.69;1696968;83;21041;-73
2021/06/30 18:12:39;;;;;;;8.45;7.17;;;;;;;28.82;45.56;99263.20;1698813;84;21090;-70
2021/06/30 18:15:08;;;;;;;7.50;6.80;;;;;;;28.90;45.49;99269.10;1689212;83;21239;-69
2021/06/30 18:17:35;;;;;;;10.25;7.15;;;;;;;28.94;45.53;99268.19;1701090;83;21112;-69
2021/06/30 18:20:04;;;;;;;8.13;6.75;;;;;;;28.99;45.51;99269.47;1696132;83;21154;-73
2021/06/30 18:22:31;;;;;;;7.00;6.12;;;;;;;29.06;45.56;99266.89;1700830;82;21084;-70
2021/06/30 18:24:57;;;;;;;8.85;6.40;;;;;;;29.07;45.87;99267.95;1691284;84;21578;-74
2021/06/30 18:27:23;;;;;;;7.58;6.15;;;;;;;29.09;45.90;99265.73;1677889;85;21129;-72
2021/06/30 18:29:50;;;;;;;7.08;5.65;;;;;;;29.08;45.76;99265.46;1679703;85;21126;-70
2021/06/30 18:32:17;;;;;;;7.75;6.03;;;;;;;29.09;45.65;99266.27;1676242;84;21226;-71
2021/06/30 18:34:43;;;;;;;7.53;5.67;;;;;;;29.08;45.60;99267.39;1676097;84;21359;-69
2021/06/30 18:37:28;;;;;;;6.75;6.05;;;;;;;29.06;45.51;99262.78;1684338;84;21073;-74
2021/06/30 18:40:04;;;;;;;6.33;5.72;;;;;;;29.05;45.72;99256.48;1672386;83;21595;-71
2021/06/30 18:42:31;;;;;;;7.33;5.62;;;;;;;29.04;45.61;99253.52;1681342;83;21054;-70
2021/06/30 18:44:59;;;;;;;6.30;5.70;;;;;;;29.03;45.55;99250.51;1735115;81;21212;-71
2021/06/30 18:47:26;;;;;;;6.08;5.37;;;;;;;29.01;45.53;99244.00;1741876;82;21141;-71
2021/06/30 18:49:53;;;;;;;8.68;6.28;;;;;;;29.02;45.55;99242.07;1738975;82;21077;-67
2021/06/30 18:52:38;;;;;;;;;;;;;;;;;;;;;
2021/06/30 18:55:04;;;;;;;6.55;5.70;;;;;;;29.01;45.57;99245.90;1737119;81;21026;-70
2021/06/30 18:57:41;;;;;;;7.70;5.50;;;;;;;28.99;45.60;99238.02;1730651;81;21030;-72
2021/06/30 19:00:13;;;;;;;6.60;5.97;;;;;;;28.99;45.60;99237.19;1728598;81;21505;-72